createdAt,value
2023-01-20T00:01:23.977Z,45.00
2023-01-20T00:04:27.813Z,45.00
2023-01-20T00:07:34.956Z,40.60
2023-01-20T00:10:38.777Z,44.00
2023-01-20T00:13:42.043Z,45.00
2023-01-20T00:16:45.480Z,42.80
2023-01-20T00:19:48.783Z,40.60
2023-01-20T00:22:53.467Z,42.60
2023-01-20T00:25:56.697Z,43.75
2023-01-20T00:29:00.020Z,45.00
2023-01-20T00:32:03.389Z,42.40
2023-01-20T00:35:07.948Z,38.00
2023-01-20T00:38:12.638Z,43.25
2023-01-20T00:41:16.076Z,38.50
2023-01-20T00:44:19.656Z,39.40
2023-01-20T00:47:23.032Z,40.40
2023-01-20T00:50:26.228Z,40.50
2023-01-20T00:53:31.001Z,40.20
2023-01-20T00:56:34.316Z,45.00
2023-01-20T00:59:37.645Z,39.60
2023-01-20T01:02:40.932Z,42.50
2023-01-20T01:05:44.754Z,45.00
2023-01-20T01:08:49.335Z,45.00
2023-01-20T01:11:53.705Z,40.50
2023-01-20T01:14:57.295Z,39.40
2023-01-20T01:18:01.382Z,45.20
2023-01-20T01:21:08.230Z,45.50
2023-01-20T01:24:12.920Z,44.00
2023-01-20T01:27:16.504Z,47.00
2023-01-20T01:30:20.336Z,47.25
2023-01-20T01:33:23.697Z,45.00
2023-01-20T01:36:27.001Z,48.60
2023-01-20T01:39:31.638Z,46.00
2023-01-20T01:42:35.523Z,44.60
2023-01-20T01:45:40.993Z,47.00
2023-01-20T01:48:46.620Z,46.60
2023-01-20T01:51:55.721Z,45.50
2023-01-20T01:55:01.283Z,48.00
2023-01-20T01:58:08.418Z,51.40
2023-01-20T02:01:12.468Z,47.50
2023-01-20T02:04:18.222Z,47.80
2023-01-20T02:07:23.197Z,44.00
2023-01-20T02:10:28.061Z,47.50
2023-01-20T02:13:31.477Z,45.00
2023-01-20T02:16:44.724Z,47.60
2023-01-20T02:20:32.160Z,49.40
2023-01-20T02:24:04.572Z,45.20
2023-01-20T02:27:15.614Z,49.00
2023-01-20T02:30:39.637Z,47.00
2023-01-20T02:33:50.863Z,47.50
2023-01-20T02:36:59.260Z,46.00
2023-01-20T02:40:17.063Z,50.00
2023-01-20T02:43:25.210Z,45.00
2023-01-20T02:46:35.038Z,48.40
2023-01-20T02:49:46.768Z,47.60
2023-01-20T02:52:53.830Z,47.25
2023-01-20T02:55:57.384Z,50.00
2023-01-20T02:59:04.436Z,45.00
2023-01-20T03:02:12.475Z,47.75
2023-01-20T03:05:22.286Z,48.40
2023-01-20T03:08:28.625Z,45.00
2023-01-20T03:11:36.418Z,51.40
2023-01-20T03:14:39.915Z,46.80
2023-01-20T03:17:43.259Z,48.40
2023-01-20T03:20:48.060Z,47.25
2023-01-20T03:23:54.301Z,45.00
2023-01-20T03:26:57.993Z,45.60
2023-01-20T03:30:01.316Z,47.00
2023-01-20T03:33:05.466Z,49.60
2023-01-20T03:36:11.831Z,46.00
2023-01-20T03:39:16.166Z,45.00
2023-01-20T03:42:30.549Z,46.20
2023-01-20T03:45:42.364Z,48.60
2023-01-20T03:48:51.406Z,48.40
2023-01-20T03:52:04.378Z,45.75
2023-01-20T03:55:15.414Z,48.20
2023-01-20T03:58:23.185Z,45.75
2023-01-20T04:01:33.472Z,48.75
2023-01-20T04:04:40.707Z,47.00
2023-01-20T04:07:48.129Z,49.40
2023-01-20T04:10:52.862Z,49.50
2023-01-20T04:13:56.964Z,47.50
2023-01-20T04:17:00.702Z,48.00
2023-01-20T04:20:12.108Z,44.60
2023-01-20T04:23:22.357Z,47.00
2023-01-20T04:26:25.631Z,44.25
2023-01-20T04:29:28.959Z,46.00
2023-01-20T04:32:32.304Z,49.00
2023-01-20T04:35:35.650Z,45.00
2023-01-20T04:38:40.320Z,47.80
2023-01-20T04:41:43.587Z,46.80
2023-01-20T04:44:47.209Z,49.00
2023-01-20T04:47:50.541Z,51.60
2023-01-20T04:50:53.824Z,49.40
2023-01-20T04:53:59.967Z,49.40
2023-01-20T04:57:03.253Z,45.40
2023-01-20T05:00:08.649Z,50.00
2023-01-20T05:03:12.585Z,42.40
2023-01-20T05:06:16.235Z,40.00
2023-01-20T05:09:21.094Z,34.00
2023-01-20T05:12:24.400Z,40.00
2023-01-20T05:15:27.726Z,42.40
2023-01-20T05:18:31.059Z,39.00
2023-01-20T05:21:35.030Z,34.60
2023-01-20T05:24:39.880Z,36.50
2023-01-20T05:27:43.228Z,33.50
2023-01-20T05:30:46.655Z,32.00
2023-01-20T05:33:50.000Z,34.75
2023-01-20T05:36:54.403Z,34.00
2023-01-20T05:39:59.102Z,37.00
2023-01-20T05:43:03.249Z,38.80
2023-01-20T05:46:07.714Z,32.00
2023-01-20T05:49:12.259Z,34.00
2023-01-20T05:52:15.739Z,27.20
2023-01-20T05:55:20.896Z,31.00
2023-01-20T05:58:24.230Z,27.00
2023-01-20T06:01:27.590Z,32.00
2023-01-20T06:04:31.004Z,31.40
2023-01-20T06:07:34.222Z,31.20
2023-01-20T06:10:39.353Z,27.60
2023-01-20T06:13:43.417Z,28.40
2023-01-20T06:16:46.786Z,30.50
2023-01-20T06:19:50.188Z,28.40
2023-01-20T06:22:56.441Z,29.25
2023-01-20T06:26:02.896Z,33.80
2023-01-20T06:29:06.388Z,33.00
2023-01-20T06:32:09.677Z,31.00
2023-01-20T06:35:13.250Z,30.60
2023-01-20T06:38:16.618Z,29.00
2023-01-20T06:41:22.283Z,27.60
2023-01-20T06:44:25.768Z,28.40
2023-01-20T06:47:29.205Z,31.60
2023-01-20T06:50:32.947Z,29.40
2023-01-20T06:53:36.279Z,31.00
2023-01-20T06:56:41.191Z,36.60
2023-01-20T06:59:44.781Z,30.33
2023-01-20T07:02:49.953Z,29.00
2023-01-20T07:05:56.730Z,33.60
2023-01-20T07:09:06.954Z,31.60
2023-01-20T07:12:17.185Z,30.80
2023-01-20T07:15:20.443Z,32.75
2023-01-20T07:18:23.763Z,35.00
2023-01-20T07:21:27.519Z,28.25
2023-01-20T07:24:30.844Z,42.60
2023-01-20T07:27:35.688Z,29.60
2023-01-20T07:30:39.598Z,37.40
2023-01-20T07:33:43.246Z,30.60
2023-01-20T07:36:46.539Z,32.40
2023-01-20T07:39:49.782Z,31.40
2023-01-20T07:42:55.028Z,37.00
2023-01-20T07:45:58.865Z,29.40
2023-01-20T07:49:02.254Z,34.20
2023-01-20T07:52:05.697Z,31.00
2023-01-20T07:55:09.665Z,31.80
2023-01-20T07:58:14.536Z,35.00
2023-01-20T08:01:20.246Z,32.40
2023-01-20T08:04:23.720Z,32.40
2023-01-20T08:07:27.000Z,34.80
2023-01-20T08:10:30.265Z,32.50
2023-01-20T08:13:35.577Z,31.40
2023-01-20T08:16:38.867Z,30.60
2023-01-20T08:19:42.467Z,37.60
2023-01-20T08:22:45.716Z,35.00
2023-01-20T08:25:48.993Z,33.00
2023-01-20T08:28:54.348Z,34.40
2023-01-20T08:31:59.730Z,35.60
2023-01-20T08:35:03.020Z,39.00
2023-01-20T08:38:07.800Z,38.40
2023-01-20T08:41:13.862Z,34.00
2023-01-20T08:44:20.556Z,38.00
2023-01-20T08:47:23.957Z,33.60
2023-01-20T08:50:27.485Z,36.50
2023-01-20T08:53:30.771Z,36.25
2023-01-20T08:56:36.592Z,38.80
2023-01-20T08:59:41.595Z,36.60
2023-01-20T09:02:45.311Z,34.00
2023-01-20T09:05:48.731Z,35.00
2023-01-20T09:08:53.162Z,37.80
2023-01-20T09:11:56.442Z,36.25
2023-01-20T09:15:04.748Z,41.50
2023-01-20T09:18:08.327Z,39.00
2023-01-20T09:21:12.479Z,38.60
2023-01-20T09:24:16.300Z,40.40
2023-01-20T09:27:19.601Z,37.25
2023-01-20T09:30:24.558Z,45.00
2023-01-20T09:33:28.641Z,35.40
2023-01-20T09:36:31.971Z,35.40
2023-01-20T09:39:52.988Z,40.00
2023-01-20T09:43:34.677Z,44.00
2023-01-20T09:47:10.621Z,42.00
2023-01-20T09:50:47.234Z,48.20
2023-01-20T09:53:57.566Z,46.00
2023-01-20T09:57:03.155Z,43.50
2023-01-20T10:00:14.465Z,40.60
2023-01-20T10:03:25.547Z,42.60
2023-01-20T10:06:34.701Z,38.60
2023-01-20T10:09:46.207Z,39.25
2023-01-20T10:12:55.929Z,44.80
2023-01-20T10:16:03.420Z,44.20
2023-01-20T10:19:15.457Z,40.50
2023-01-20T10:22:23.795Z,37.60
2023-01-20T10:25:31.803Z,47.00
2023-01-20T10:28:40.752Z,38.60
2023-01-20T10:31:50.439Z,41.40
2023-01-20T10:34:58.400Z,43.00
2023-01-20T10:38:01.999Z,43.00
2023-01-20T10:41:16.690Z,44.60
2023-01-20T10:44:21.495Z,38.80
2023-01-20T10:47:42.444Z,39.60
2023-01-20T10:50:57.921Z,44.60
2023-01-20T10:54:13.646Z,44.20
2023-01-20T10:57:17.331Z,39.00
2023-01-20T11:00:26.188Z,43.60
2023-01-20T11:03:36.350Z,44.80
2023-01-20T11:06:40.972Z,45.00
2023-01-20T11:09:45.011Z,43.00
2023-01-20T11:12:51.472Z,37.40
2023-01-20T11:15:58.262Z,48.00
2023-01-20T11:19:03.327Z,44.75
2023-01-20T11:22:13.739Z,44.60
2023-01-20T11:25:25.787Z,42.00
2023-01-20T11:28:38.126Z,45.00
2023-01-20T11:31:45.129Z,39.00
2023-01-20T11:34:50.974Z,45.33
2023-01-20T11:37:55.559Z,43.20
2023-01-20T11:40:59.710Z,40.60
2023-01-20T11:44:02.995Z,41.60
2023-01-20T11:47:22.712Z,45.00
2023-01-20T11:50:33.356Z,39.75
2023-01-20T11:53:38.147Z,38.00
2023-01-20T11:56:44.221Z,45.80
2023-01-20T11:59:51.539Z,38.60
2023-01-20T12:02:59.843Z,44.75
2023-01-20T12:06:14.392Z,43.40
2023-01-20T12:09:23.818Z,47.00
2023-01-20T12:12:33.737Z,40.20
2023-01-20T12:15:45.320Z,39.40
2023-01-20T12:19:01.745Z,41.00
2023-01-20T12:22:14.029Z,42.20
2023-01-20T12:25:22.430Z,40.00
2023-01-20T12:28:34.371Z,44.40
2023-01-20T12:31:37.975Z,38.75
2023-01-20T12:34:41.357Z,40.60
2023-01-20T12:37:52.873Z,43.40
2023-01-20T12:41:04.878Z,37.40
2023-01-20T12:44:20.662Z,39.60
2023-01-20T12:47:40.291Z,43.40
2023-01-20T12:50:58.400Z,41.25
2023-01-20T12:54:22.397Z,45.40
2023-01-20T12:57:43.802Z,42.40
2023-01-20T13:01:12.295Z,37.33
2023-01-20T13:04:58.318Z,45.00
2023-01-20T13:08:12.587Z,38.80
2023-01-20T13:11:25.321Z,43.20
2023-01-20T13:14:40.819Z,42.20
2023-01-20T13:18:07.876Z,39.80
2023-01-20T13:21:18.819Z,41.00
2023-01-20T13:24:29.439Z,38.40
2023-01-20T13:27:36.818Z,38.60
2023-01-20T13:30:48.238Z,37.50
2023-01-20T13:33:51.661Z,29.20
2023-01-20T13:37:37.904Z,43.60
2023-01-20T13:41:03.292Z,36.40
2023-01-20T13:44:27.449Z,37.40
2023-01-20T13:47:52.476Z,34.60
2023-01-20T13:50:55.750Z,37.00
2023-01-20T13:54:37.979Z,37.20
2023-01-20T13:57:41.265Z,33.00
2023-01-20T14:00:45.286Z,34.00
2023-01-20T14:04:05.760Z,39.00
2023-01-20T14:07:23.503Z,35.50
2023-01-20T14:10:28.049Z,40.80
2023-01-20T14:13:31.321Z,35.80
2023-01-20T14:16:40.663Z,41.20
2023-01-20T14:19:48.467Z,42.20
2023-01-20T14:22:52.215Z,35.00
2023-01-20T14:26:03.901Z,37.00
2023-01-20T14:29:07.317Z,38.80
2023-01-20T14:32:21.214Z,31.60
2023-01-20T14:35:31.333Z,37.60
2023-01-20T14:38:40.129Z,36.40
2023-01-20T14:41:53.680Z,39.00
2023-01-20T14:44:58.889Z,37.00
2023-01-20T14:48:06.389Z,35.75
2023-01-20T14:51:13.059Z,35.75
2023-01-20T14:54:39.780Z,36.00
2023-01-20T14:57:44.694Z,38.80
2023-01-20T15:00:49.902Z,32.75
2023-01-20T15:03:57.799Z,40.00
2023-01-20T15:07:03.239Z,37.60
2023-01-20T15:10:08.446Z,35.40
2023-01-20T15:13:26.539Z,39.25
2023-01-20T15:16:31.561Z,36.20
2023-01-20T15:19:36.022Z,36.50
2023-01-20T15:22:43.669Z,36.20
2023-01-20T15:25:47.938Z,40.80
2023-01-20T15:28:51.251Z,37.75
2023-01-20T15:31:56.717Z,37.80
2023-01-20T15:34:59.967Z,40.40
2023-01-20T15:38:11.286Z,37.00
2023-01-20T15:41:15.104Z,38.25
2023-01-20T15:44:18.748Z,41.00
2023-01-20T15:47:29.224Z,35.40
2023-01-20T15:50:33.160Z,35.00
2023-01-20T15:53:37.805Z,35.00
2023-01-20T15:56:42.751Z,37.75
2023-01-20T15:59:46.400Z,34.00
2023-01-20T16:02:50.202Z,29.00
2023-01-20T16:05:55.486Z,31.60
2023-01-20T16:09:02.769Z,32.00
2023-01-20T16:12:06.269Z,31.00
2023-01-20T16:15:15.656Z,33.80
2023-01-20T16:18:19.727Z,33.50
2023-01-20T16:21:23.062Z,29.40
2023-01-20T16:24:27.783Z,23.00
2023-01-20T16:27:31.046Z,29.00
2023-01-20T16:30:34.311Z,30.00
2023-01-20T16:33:37.560Z,24.00
2023-01-20T16:36:40.919Z,30.00
2023-01-20T16:39:45.636Z,27.40
2023-01-20T16:42:49.230Z,25.00
2023-01-20T16:45:55.347Z,24.00
2023-01-20T16:48:59.797Z,24.00
2023-01-20T16:52:03.105Z,23.00
2023-01-20T16:55:08.782Z,22.25
2023-01-20T16:58:12.366Z,23.00
2023-01-20T17:01:15.669Z,21.60
2023-01-20T17:04:19.124Z,23.00
2023-01-20T17:07:23.687Z,26.00
2023-01-20T17:10:32.452Z,24.40
2023-01-20T17:13:35.655Z,24.80
2023-01-20T17:16:40.116Z,25.00
2023-01-20T17:19:43.457Z,25.40
2023-01-20T17:22:47.117Z,22.80
2023-01-20T17:25:51.849Z,24.40
2023-01-20T17:28:56.957Z,24.80
2023-01-20T17:32:00.208Z,26.40
2023-01-20T17:35:04.230Z,25.20
2023-01-20T17:38:07.585Z,23.00
2023-01-20T17:41:13.889Z,29.50
2023-01-20T17:44:17.555Z,23.20
2023-01-20T17:47:21.065Z,23.50
2023-01-20T17:50:24.419Z,24.00
2023-01-20T17:53:28.011Z,23.75
2023-01-20T17:56:32.922Z,25.00
2023-01-20T17:59:36.267Z,23.00
2023-01-20T18:02:39.519Z,27.25
2023-01-20T18:05:42.868Z,24.20
2023-01-20T18:08:50.733Z,27.00
2023-01-20T18:11:55.402Z,21.60
2023-01-20T18:14:58.777Z,24.60
2023-01-20T18:18:02.837Z,25.60
2023-01-20T18:21:10.697Z,24.20
2023-01-20T18:24:14.836Z,24.00
2023-01-20T18:27:19.778Z,26.50
2023-01-20T18:30:24.560Z,24.00
2023-01-20T18:33:27.860Z,24.20
2023-01-20T18:36:33.308Z,26.00
2023-01-20T18:39:37.403Z,19.40
2023-01-20T18:42:45.263Z,24.00
2023-01-20T18:45:48.749Z,25.20
2023-01-20T18:48:54.808Z,23.00
2023-01-20T18:51:58.117Z,23.60
2023-01-20T18:55:01.438Z,24.00
2023-01-20T18:58:06.086Z,25.00
2023-01-20T19:01:11.316Z,22.00
2023-01-20T19:04:14.876Z,23.00
2023-01-20T19:07:18.284Z,22.00
2023-01-20T19:10:21.684Z,23.80
2023-01-20T19:13:26.559Z,23.60
2023-01-20T19:16:32.600Z,22.80
2023-01-20T19:19:36.661Z,20.60
2023-01-20T19:22:40.064Z,23.00
2023-01-20T19:25:43.885Z,21.60
2023-01-20T19:28:49.714Z,27.00
2023-01-20T19:31:53.073Z,23.75
2023-01-20T19:34:56.380Z,22.25
2023-01-20T19:37:59.727Z,23.00
2023-01-20T19:41:06.950Z,20.00
2023-01-20T19:44:13.867Z,18.25
2023-01-20T19:47:17.164Z,19.60
2023-01-20T19:50:20.824Z,20.20
2023-01-20T19:53:24.227Z,20.00
2023-01-20T19:56:30.231Z,20.80
2023-01-20T19:59:34.859Z,18.60
2023-01-20T20:02:38.649Z,21.20
2023-01-20T20:05:41.981Z,19.50
2023-01-20T20:08:45.357Z,18.00
2023-01-20T20:11:49.257Z,22.25
2023-01-20T20:14:55.127Z,19.00
2023-01-20T20:17:58.470Z,20.20
2023-01-20T20:21:01.717Z,21.20
2023-01-20T20:24:06.306Z,22.50
2023-01-20T20:27:09.918Z,17.80
2023-01-20T20:30:15.292Z,17.00
2023-01-20T20:33:19.878Z,19.00
2023-01-20T20:36:23.268Z,17.20
2023-01-20T20:39:27.130Z,20.00
2023-01-20T20:42:30.379Z,17.60
2023-01-20T20:45:35.396Z,18.20
2023-01-20T20:48:38.626Z,18.00
2023-01-20T20:51:42.111Z,20.00
2023-01-20T20:54:45.309Z,23.00
2023-01-20T20:57:48.604Z,21.00
2023-01-20T21:00:53.239Z,21.40
2023-01-20T21:03:58.190Z,21.40
2023-01-20T21:07:01.665Z,20.75
2023-01-20T21:10:06.343Z,23.00
2023-01-20T21:13:09.682Z,20.50
2023-01-20T21:16:17.150Z,20.00
2023-01-20T21:19:20.700Z,17.00
2023-01-20T21:22:24.378Z,19.40
2023-01-20T21:25:27.747Z,22.00
2023-01-20T21:28:33.254Z,22.00
2023-01-20T21:31:38.204Z,23.00
2023-01-20T21:34:41.579Z,20.40
2023-01-20T21:37:44.899Z,25.25
2023-01-20T21:41:01.302Z,23.00
2023-01-20T21:44:22.446Z,19.20
2023-01-20T21:47:27.434Z,22.20
2023-01-20T21:50:47.879Z,23.00
2023-01-20T21:53:52.817Z,19.00
2023-01-20T21:56:56.333Z,18.20
2023-01-20T21:59:59.657Z,17.60
2023-01-20T22:03:04.408Z,20.75
2023-01-20T22:06:08.268Z,16.60
2023-01-20T22:09:11.989Z,18.00
2023-01-20T22:12:16.257Z,16.60
2023-01-20T22:15:19.533Z,16.60
2023-01-20T22:18:24.390Z,16.50
2023-01-20T22:21:27.759Z,16.75
2023-01-20T22:24:32.819Z,15.00
2023-01-20T22:27:36.133Z,17.00
2023-01-20T22:30:40.186Z,20.50
2023-01-20T22:33:44.944Z,14.00
2023-01-20T22:36:48.583Z,17.25
2023-01-20T22:39:51.804Z,17.00
2023-01-20T22:42:55.130Z,17.20
2023-01-20T22:45:59.963Z,20.60
2023-01-20T22:49:04.671Z,16.20
2023-01-20T22:52:08.060Z,20.40
2023-01-20T22:55:11.683Z,20.40
2023-01-20T22:58:16.867Z,18.00
2023-01-20T23:01:22.951Z,18.40
2023-01-20T23:04:28.063Z,16.40
2023-01-20T23:07:31.436Z,20.00
2023-01-20T23:10:54.902Z,16.40
2023-01-20T23:13:58.348Z,13.80
2023-01-20T23:17:01.651Z,14.75
2023-01-20T23:20:07.217Z,15.40
2023-01-20T23:23:11.035Z,18.40
2023-01-20T23:26:16.797Z,20.00
2023-01-20T23:29:20.263Z,15.00
2023-01-20T23:32:24.029Z,14.00
2023-01-20T23:35:28.622Z,12.00
2023-01-20T23:38:31.960Z,12.60
2023-01-20T23:41:35.261Z,15.60
2023-01-20T23:44:38.572Z,17.00
2023-01-20T23:47:41.896Z,14.60
2023-01-20T23:50:47.178Z,13.25
2023-01-20T23:53:50.546Z,11.00
2023-01-20T23:56:53.919Z,12.00
2023-01-20T23:59:57.194Z,14.00
